Time;durP1;ratioP1;P1;durP2;ratioP2;P2;SDS_P1;SDS_P2;PMS_P1;PMS_P2;Temp;Humidity;BMP_temperature;BMP_pressure;BME280_temperature;BME280_humidity;BME280_pressure;Samples;Min_cycle;Max_cycle;Signal;HPM_P1;HPM_P2
2021/07/08 00:00:20;;;;;;;19.80;8.65;;;22.10;57.60;;;;;;4994548;28;20113;-78
2021/07/08 00:02:48;;;;;;;17.33;7.10;;;22.00;58.10;;;;;;4994312;28;20022;-80
2021/07/08 00:05:14;;;;;;;;;;;22.00;58.70;;;;;;4992887;28;20045;-79
2021/07/08 00:07:40;;;;;;;17.05;7.57;;;22.00;57.80;;;;;;4994109;28;19937;-79
2021/07/08 00:10:13;;;;;;;20.13;8.10;;;21.90;58.50;;;;;;4994065;28;20064;-78
2021/07/08 00:12:39;;;;;;;12.27;6.60;;;21.90;58.30;;;;;;4994134;28;20464;-78
2021/07/08 00:15:14;;;;;;;15.93;6.57;;;21.90;58.00;;;;;;4976280;28;20074;-78
2021/07/08 00:17:41;;;;;;;9.70;6.70;;;21.90;58.00;;;;;;4994762;28;20391;-79
2021/07/08 00:20:15;;;;;;;16.55;6.63;;;21.90;58.30;;;;;;4995120;28;20029;-79
2021/07/08 00:22:41;;;;;;;12.45;6.90;;;21.90;58.70;;;;;;4993869;28;20038;-78
2021/07/08 00:25:10;;;;;;;17.95;7.07;;;21.90;58.50;;;;;;4993916;28;20068;-80
2021/07/08 00:27:36;;;;;;;13.27;6.75;;;21.90;58.80;;;;;;4993767;28;20026;-81
2021/07/08 00:30:06;;;;;;;15.85;7.03;;;21.80;58.50;;;;;;4993749;28;20022;-78
2021/07/08 00:32:32;;;;;;;14.10;7.43;;;21.90;59.10;;;;;;4990165;28;20034;-79
2021/07/08 00:34:58;;;;;;;10.25;6.38;;;21.80;59.10;;;;;;4993994;28;20052;-79
2021/07/08 00:37:24;;;;;;;14.52;6.80;;;21.80;59.20;;;;;;4992510;28;20073;-81
2021/07/08 00:39:49;;;;;;;23.63;7.65;;;21.80;59.10;;;;;;4992383;28;20030;-80
2021/07/08 00:42:15;;;;;;;16.88;6.80;;;21.80;59.30;;;;;;4992002;28;20042;-79
2021/07/08 00:44:41;;;;;;;12.00;6.13;;;21.70;59.40;;;;;;4993389;28;20042;-79
2021/07/08 00:47:07;;;;;;;16.30;7.22;;;21.70;59.40;;;;;;4992320;28;20050;-79
2021/07/08 00:49:33;;;;;;;20.90;7.15;;;21.70;59.10;;;;;;4993459;28;20033;-81
2021/07/08 00:52:01;;;;;;;18.55;7.72;;;21.70;59.40;;;;;;4993397;28;20105;-80
2021/07/08 00:54:27;;;;;;;11.15;7.50;;;21.70;59.30;;;;;;4993285;28;20031;-80
2021/07/08 00:56:53;;;;;;;19.08;7.80;;;21.70;59.10;;;;;;4993232;28;20069;-80
2021/07/08 00:59:19;;;;;;;15.43;7.72;;;21.70;58.80;;;;;;4993327;28;20034;-80
2021/07/08 01:01:46;;;;;;;12.13;6.63;;;21.70;59.20;;;;;;4993269;28;20066;-81
2021/07/08 01:04:12;;;;;;;21.35;7.88;;;21.70;59.20;;;;;;4993166;28;20042;-83
2021/07/08 01:06:44;;;;;;;13.35;7.68;;;21.60;59.10;;;;;;4991970;28;20041;-79
2021/07/08 01:09:13;;;;;;;11.68;7.28;;;21.60;59.20;;;;;;4992797;28;20034;-80
2021/07/08 01:11:40;;;;;;;17.33;7.30;;;21.60;59.30;;;;;;4993117;28;20477;-80
2021/07/08 01:14:07;;;;;;;15.17;7.47;;;21.60;59.10;;;;;;4992618;28;20054;-79
2021/07/08 01:16:33;;;;;;;14.07;7.82;;;21.60;59.30;;;;;;4993227;28;20026;-80
2021/07/08 01:19:00;;;;;;;15.68;7.45;;;21.60;59.40;;;;;;4993382;28;20388;-78
2021/07/08 01:21:27;;;;;;;25.07;7.40;;;21.60;59.10;;;;;;4991771;28;20030;-79
2021/07/08 01:23:55;;;;;;;20.65;8.18;;;21.60;59.40;;;;;;4992836;28;20079;-79
2021/07/08 01:26:22;;;;;;;16.92;7.20;;;21.60;59.10;;;;;;4991909;28;20023;-78
2021/07/08 01:28:52;;;;;;;19.40;7.35;;;21.60;59.20;;;;;;4993126;28;20030;-79
2021/07/08 01:31:18;;;;;;;12.38;7.32;;;21.70;59.20;;;;;;4993980;28;20023;-78
2021/07/08 01:33:45;;;;;;;13.85;7.75;;;21.60;58.80;;;;;;4991979;28;20027;-79
2021/07/08 01:36:12;;;;;;;14.90;7.78;;;21.70;58.90;;;;;;4992882;28;20077;-79
2021/07/08 01:38:38;;;;;;;13.77;7.82;;;21.70;58.30;;;;;;4993070;28;20085;-78
2021/07/08 01:41:04;;;;;;;17.10;8.15;;;21.70;58.40;;;;;;4991410;28;20022;-78
2021/07/08 01:43:38;;;;;;;14.95;8.07;;;21.70;58.20;;;;;;4993032;28;20562;-78
2021/07/08 01:46:05;;;;;;;17.05;7.95;;;21.70;58.80;;;;;;4992750;28;20023;-78
2021/07/08 01:48:32;;;;;;;14.65;7.07;;;21.70;58.70;;;;;;4993135;28;20021;-78
2021/07/08 01:51:17;;;;;;;11.02;7.93;;;21.70;59.00;;;;;;4994009;28;20038;-80
2021/07/08 01:53:43;;;;;;;17.02;7.32;;;21.80;58.10;;;;;;4986704;28;20093;-78
2021/07/08 01:56:09;;;;;;;13.05;7.57;;;21.80;58.70;;;;;;4996150;28;20069;-79
2021/07/08 01:58:35;;;;;;;13.57;7.32;;;21.80;58.60;;;;;;5005060;28;20021;-79
2021/07/08 02:01:01;;;;;;;14.32;7.13;;;21.90;58.70;;;;;;5006518;28;20435;-79
2021/07/08 02:03:27;;;;;;;12.57;7.20;;;21.90;58.30;;;;;;4996471;28;20058;-78
2021/07/08 02:05:52;;;;;;;10.55;7.28;;;21.90;58.50;;;;;;5007966;28;20022;-79
2021/07/08 02:08:18;;;;;;;13.68;7.68;;;21.90;59.20;;;;;;4997244;28;20813;-79
2021/07/08 02:10:44;;;;;;;13.10;7.55;;;22.00;58.80;;;;;;4997943;28;20029;-80
2021/07/08 02:13:10;;;;;;;12.20;7.15;;;21.90;58.80;;;;;;4999693;28;20039;-79
2021/07/08 02:15:36;;;;;;;10.95;7.28;;;22.00;58.50;;;;;;5011091;28;20042;-78
2021/07/08 02:18:04;;;;;;;13.75;7.78;;;22.00;58.90;;;;;;5000040;28;20018;-80
2021/07/08 02:20:29;;;;;;;13.25;7.30;;;22.10;58.60;;;;;;4997484;28;20089;-80
2021/07/08 02:22:55;;;;;;;10.55;6.35;;;22.20;58.40;;;;;;4995922;28;20030;-81
2021/07/08 02:25:22;;;;;;;12.80;7.57;;;22.20;57.70;;;;;;4996262;28;20106;-82
2021/07/08 02:27:48;;;;;;;13.80;7.65;;;22.30;57.10;;;;;;4996357;28;20125;-81
2021/07/08 02:30:20;;;;;;;18.13;8.88;;;22.40;57.10;;;;;;4997327;28;20033;-81
2021/07/08 02:32:51;;;;;;;13.25;6.93;;;22.40;57.00;;;;;;4995393;28;20121;-81
2021/07/08 02:35:19;;;;;;;12.93;7.82;;;22.50;56.50;;;;;;4992113;28;20441;-81
2021/07/08 02:37:45;;;;;;;15.52;7.18;;;22.50;56.30;;;;;;4995749;28;20022;-81
2021/07/08 02:40:15;;;;;;;12.23;7.10;;;22.60;56.10;;;;;;4996007;28;20380;-81
2021/07/08 02:42:47;;;;;;;13.35;7.75;;;22.60;55.90;;;;;;4994377;28;20050;-79
2021/07/08 02:45:13;;;;;;;12.40;7.45;;;22.70;55.70;;;;;;4995626;28;20026;-80
2021/07/08 02:47:39;;;;;;;13.00;7.30;;;22.80;55.30;;;;;;4994400;28;20022;-83
2021/07/08 02:50:06;;;;;;;18.25;7.57;;;22.80;55.40;;;;;;4995833;28;20031;-82
2021/07/08 02:52:32;;;;;;;15.60;7.05;;;22.90;55.10;;;;;;4996183;28;20022;-85
2021/07/08 02:54:58;;;;;;;16.15;7.45;;;22.90;54.40;;;;;;4996697;28;20034;-85
2021/07/08 02:57:24;;;;;;;11.57;7.28;;;23.00;54.20;;;;;;4997063;28;20133;-84
2021/07/08 02:59:50;;;;;;;19.05;8.10;;;23.10;53.90;;;;;;4995592;28;20124;-82
2021/07/08 03:02:15;;;;;;;15.55;7.80;;;23.20;53.70;;;;;;4994069;28;20030;-82
2021/07/08 03:04:41;;;;;;;20.10;8.43;;;23.40;53.10;;;;;;4995482;28;20045;-84
2021/07/08 03:07:07;;;;;;;10.98;7.45;;;23.50;52.90;;;;;;4996714;28;20023;-86
2021/07/08 03:09:33;;;;;;;14.15;7.72;;;23.60;52.80;;;;;;4996449;28;20022;-83
2021/07/08 03:11:58;;;;;;;15.38;7.38;;;23.70;52.40;;;;;;5001172;28;20022;-83
2021/07/08 03:14:24;;;;;;;17.23;8.13;;;23.90;52.50;;;;;;5006352;28;20026;-85
2021/07/08 03:16:50;;;;;;;16.48;8.90;;;23.90;52.80;;;;;;5007876;28;20027;-84
2021/07/08 03:19:16;;;;;;;19.25;8.07;;;24.00;52.80;;;;;;4999062;28;20145;-85
2021/07/08 03:21:42;;;;;;;17.95;8.23;;;24.10;52.60;;;;;;4980865;28;20384;-83
2021/07/08 03:24:07;;;;;;;16.02;7.70;;;24.20;52.60;;;;;;4978423;28;20035;-84
2021/07/08 03:26:34;;;;;;;14.60;7.35;;;24.20;52.40;;;;;;4992600;28;20487;-82
2021/07/08 03:29:01;;;;;;;14.27;6.95;;;24.20;52.10;;;;;;4996607;28;20042;-83
2021/07/08 03:31:27;;;;;;;13.68;7.75;;;24.20;52.20;;;;;;4995929;28;20033;-85
2021/07/08 03:33:53;;;;;;;10.73;7.15;;;24.20;51.80;;;;;;4998096;28;20031;-84
2021/07/08 03:36:19;;;;;;;17.95;7.72;;;24.20;51.80;;;;;;5001505;28;20022;-85
2021/07/08 03:38:45;;;;;;;17.00;7.32;;;24.30;51.80;;;;;;4993543;28;20022;-82
2021/07/08 03:41:11;;;;;;;12.05;6.57;;;24.40;51.80;;;;;;4995523;28;20076;-84
2021/07/08 03:43:36;;;;;;;12.45;7.00;;;24.50;51.60;;;;;;4994727;28;20041;-87
2021/07/08 03:46:02;;;;;;;10.40;7.05;;;24.50;51.50;;;;;;4985256;28;20405;-87
2021/07/08 03:48:28;;;;;;;16.40;7.10;;;24.60;51.60;;;;;;4992308;28;20484;-82
2021/07/08 03:50:54;;;;;;;19.80;7.95;;;24.70;51.10;;;;;;4999880;28;20105;-91
2021/07/08 03:53:20;;;;;;;11.73;6.32;;;24.80;50.70;;;;;;4996516;28;20428;-83
2021/07/08 03:55:46;;;;;;;14.43;6.70;;;24.80;50.60;;;;;;4995149;28;20030;-84
2021/07/08 03:58:11;;;;;;;17.48;6.50;;;24.90;50.30;;;;;;4995462;28;20026;-85
2021/07/08 04:00:40;;;;;;;13.70;6.75;;;25.00;50.60;;;;;;4994463;28;20026;-84
2021/07/08 04:03:13;;;;;;;14.43;6.75;;;25.00;50.70;;;;;;4993664;28;20034;-82
2021/07/08 04:05:40;;;;;;;11.82;7.85;;;25.10;50.80;;;;;;4994012;28;20034;-81
2021/07/08 04:08:07;;;;;;;13.65;7.32;;;25.10;51.20;;;;;;4993787;28;20018;-80
2021/07/08 04:10:36;;;;;;;14.43;6.72;;;25.10;51.60;;;;;;4994529;28;20094;-84
2021/07/08 04:13:04;;;;;;;10.65;5.63;;;25.10;50.30;;;;;;4994121;28;20042;-84
2021/07/08 04:15:31;;;;;;;12.35;6.15;;;25.20;49.40;;;;;;4994038;28;20049;-85
2021/07/08 04:17:59;;;;;;;14.98;5.13;;;25.30;49.40;;;;;;4994274;28;20484;-85
2021/07/08 04:20:25;;;;;;;13.90;6.88;;;25.30;49.00;;;;;;4994496;28;20033;-85
2021/07/08 04:22:51;;;;;;;11.70;5.45;;;25.40;49.10;;;;;;4995100;28;20031;-84
2021/07/08 04:25:18;;;;;;;8.52;5.55;;;25.50;48.60;;;;;;4994417;28;20029;-83
2021/07/08 04:27:45;;;;;;;12.07;5.88;;;25.60;49.20;;;;;;4996203;28;20030;-84
2021/07/08 04:30:14;;;;;;;9.48;5.78;;;25.70;49.10;;;;;;4993450;28;20038;-84
2021/07/08 04:32:40;;;;;;;6.60;4.82;;;25.80;48.70;;;;;;4995770;28;20031;-84
2021/07/08 04:35:09;;;;;;;9.18;5.95;;;25.90;48.50;;;;;;4994742;28;20030;-86
2021/07/08 04:37:41;;;;;;;16.58;6.18;;;26.00;48.80;;;;;;4994509;28;20114;-85
2021/07/08 04:40:09;;;;;;;10.02;5.32;;;26.10;48.90;;;;;;4994918;28;20030;-85
2021/07/08 04:42:35;;;;;;;11.10;4.78;;;26.20;47.80;;;;;;4994864;28;20018;-86
2021/07/08 04:45:01;;;;;;;9.65;5.07;;;26.20;47.50;;;;;;4994005;28;20038;-85
2021/07/08 04:47:27;;;;;;;5.72;4.65;;;26.30;46.60;;;;;;4994382;28;20064;-86
2021/07/08 04:49:53;;;;;;;8.65;4.80;;;26.40;46.40;;;;;;4995705;28;20030;-85
2021/07/08 04:52:18;;;;;;;9.32;5.13;;;26.50;47.00;;;;;;4994656;28;20432;-84
2021/07/08 04:54:44;;;;;;;9.55;5.18;;;26.60;46.90;;;;;;4994265;28;20030;-84
2021/07/08 04:57:10;;;;;;;8.52;4.32;;;;;;;;;;4994485;28;20045;-85
2021/07/08 04:59:36;;;;;;;10.88;4.13;;;;;;;;;;4994817;28;20022;-84
2021/07/08 05:02:02;;;;;;;8.02;3.97;;;26.70;47.20;;;;;;4994889;28;20027;-84
2021/07/08 05:04:28;;;;;;;9.75;4.28;;;26.90;46.00;;;;;;4994724;28;20030;-85
2021/07/08 05:06:54;;;;;;;9.70;4.60;;;26.90;45.20;;;;;;4993237;28;20033;-85
2021/07/08 05:09:20;;;;;;;10.73;4.53;;;27.00;46.00;;;;;;4994345;28;20030;-84
2021/07/08 05:11:46;;;;;;;6.22;4.43;;;27.10;45.10;;;;;;4995031;28;20089;-87
2021/07/08 05:14:11;;;;;;;14.18;5.38;;;27.40;44.80;;;;;;4994208;28;20133;-85
2021/07/08 05:16:38;;;;;;;5.78;4.65;;;;;;;;;;4994789;28;20027;-86
2021/07/08 05:19:04;;;;;;;6.03;4.67;;;28.20;44.30;;;;;;4994780;28;20038;-85
2021/07/08 05:21:30;;;;;;;8.52;4.43;;;30.10;42.20;;;;;;4995152;28;20725;-84
2021/07/08 05:23:59;;;;;;;10.48;4.50;;;30.90;40.10;;;;;;4995658;28;20034;-85
2021/07/08 05:26:28;;;;;;;19.70;6.43;;;32.00;38.90;;;;;;4995928;28;20419;-86
2021/07/08 05:28:54;;;;;;;13.20;4.63;;;32.80;37.30;;;;;;4997121;28;20026;-86
2021/07/08 05:31:20;;;;;;;13.70;4.67;;;33.30;36.80;;;;;;4988505;28;20092;-87
2021/07/08 05:33:46;;;;;;;13.53;5.03;;;33.80;36.20;;;;;;4996916;28;20098;-85
2021/07/08 05:36:13;;;;;;;8.87;4.50;;;;;;;;;;4998710;28;20039;-85
2021/07/08 05:38:38;;;;;;;9.30;5.13;;;34.20;35.90;;;;;;4999323;28;20022;-84
2021/07/08 05:41:04;;;;;;;7.57;4.53;;;35.20;34.60;;;;;;4998482;28;20045;-86
2021/07/08 05:43:30;;;;;;;10.80;4.43;;;35.60;33.70;;;;;;4999856;28;20722;-85
2021/07/08 05:45:56;;;;;;;16.97;5.53;;;35.90;33.70;;;;;;4968541;28;20033;-85
2021/07/08 05:48:23;;;;;;;9.53;5.07;;;36.70;33.20;;;;;;4998142;28;20057;-84
2021/07/08 05:50:49;;;;;;;6.60;4.10;;;37.20;32.50;;;;;;4997501;28;20022;-85
2021/07/08 05:53:15;;;;;;;9.83;4.07;;;37.30;31.50;;;;;;4997916;28;20027;-85
2021/07/08 05:55:41;;;;;;;6.60;4.17;;;37.20;32.00;;;;;;4998120;28;20033;-85
2021/07/08 05:58:06;;;;;;;10.65;4.55;;;37.40;31.90;;;;;;4999236;28;20039;-85
2021/07/08 06:00:32;;;;;;;14.77;4.47;;;38.00;31.70;;;;;;4995529;28;20141;-85
2021/07/08 06:02:58;;;;;;;8.00;4.30;;;38.00;31.00;;;;;;4997854;28;20308;-85
2021/07/08 06:05:24;;;;;;;10.40;4.63;;;38.10;30.90;;;;;;5001080;28;20030;-86
2021/07/08 06:07:50;;;;;;;8.23;4.13;;;38.60;30.40;;;;;;5000012;28;20322;-85
2021/07/08 06:10:15;;;;;;;6.20;2.88;;;39.20;29.80;;;;;;4998460;28;20030;-86
2021/07/08 06:12:41;;;;;;;9.25;3.38;;;39.90;29.10;;;;;;5002442;28;20579;-83
2021/07/08 06:15:08;;;;;;;6.75;3.40;;;40.60;28.70;;;;;;4994126;28;20086;-83
2021/07/08 06:17:34;;;;;;;4.35;2.53;;;41.50;28.70;;;;;;4997388;28;20074;-84
2021/07/08 06:20:01;;;;;;;4.90;2.85;;;42.10;27.60;;;;;;4998169;28;20387;-85
2021/07/08 06:22:27;;;;;;;9.05;2.63;;;42.50;27.30;;;;;;5006145;28;20023;-87
2021/07/08 06:24:53;;;;;;;7.43;3.63;;;42.50;26.90;;;;;;5001473;28;20042;-85
2021/07/08 06:27:19;;;;;;;5.43;2.45;;;42.50;27.10;;;;;;5003215;28;20417;-85
2021/07/08 06:29:45;;;;;;;7.43;3.45;;;43.20;26.40;;;;;;5005933;28;20030;-84
2021/07/08 06:32:11;;;;;;;16.02;3.22;;;43.80;26.40;;;;;;5002226;28;20415;-86
2021/07/08 06:34:37;;;;;;;7.63;3.22;;;43.90;26.10;;;;;;4997562;28;20415;-84
2021/07/08 06:37:03;;;;;;;7.18;2.30;;;44.00;25.90;;;;;;4997919;28;20105;-83
2021/07/08 06:39:29;;;;;;;7.60;3.58;;;44.10;26.20;;;;;;4996754;28;20022;-86
2021/07/08 06:41:55;;;;;;;;;;;44.80;26.00;;;;;;4997381;28;20113;-83
2021/07/08 06:44:20;;;;;;;3.10;2.25;;;45.20;26.60;;;;;;4996371;28;20294;-84
2021/07/08 06:46:51;;;;;;;;;;;45.10;25.50;;;;;;4997000;28;20022;-86
2021/07/08 06:49:16;;;;;;;6.57;2.83;;;45.70;26.30;;;;;;4996496;28;19996;-84
2021/07/08 06:51:42;;;;;;;6.75;3.03;;;46.20;25.20;;;;;;4996939;28;20129;-84
2021/07/08 06:54:08;;;;;;;4.07;3.17;;;46.20;25.00;;;;;;4996541;28;20101;-85
2021/07/08 06:56:34;;;;;;;8.85;2.75;;;46.60;25.10;;;;;;4997113;28;20038;-85
2021/07/08 06:59:00;;;;;;;5.68;2.55;;;46.50;25.00;;;;;;4997576;28;20026;-84
2021/07/08 07:01:26;;;;;;;6.07;2.83;;;46.80;24.70;;;;;;4996551;28;20388;-84
2021/07/08 07:03:51;;;;;;;4.57;3.05;;;46.80;24.80;;;;;;4996302;28;20133;-84
2021/07/08 07:06:17;;;;;;;7.75;2.90;;;47.00;24.90;;;;;;4996290;28;20096;-85
2021/07/08 07:08:43;;;;;;;4.65;3.30;;;47.50;24.90;;;;;;4996032;28;20034;-85
2021/07/08 07:11:10;;;;;;;4.32;2.58;;;48.10;24.10;;;;;;4996062;28;20029;-84
2021/07/08 07:13:36;;;;;;;7.05;3.70;;;48.40;23.70;;;;;;4996270;28;20578;-84
2021/07/08 07:16:02;;;;;;;3.00;2.40;;;47.70;23.40;;;;;;4992494;28;20053;-86
2021/07/08 07:18:28;;;;;;;5.72;2.83;;;47.10;23.70;;;;;;4997164;28;20062;-85
2021/07/08 07:20:54;;;;;;;5.38;3.42;;;46.60;23.60;;;;;;4996770;28;20452;-84
2021/07/08 07:23:20;;;;;;;6.63;3.95;;;46.20;24.00;;;;;;4996282;28;20518;-85
2021/07/08 07:25:46;;;;;;;3.97;3.30;;;46.30;24.10;;;;;;4996308;28;20053;-84
2021/07/08 07:28:12;;;;;;;5.32;3.08;;;46.10;24.10;;;;;;4991661;28;20027;-85
2021/07/08 07:30:40;;;;;;;5.20;3.22;;;44.90;24.10;;;;;;4984050;28;20089;-83
2021/07/08 07:33:06;;;;;;;4.90;3.17;;;42.90;25.00;;;;;;4997710;28;20026;-86
2021/07/08 07:35:33;;;;;;;5.70;2.83;;;42.80;25.90;;;;;;4996270;28;20039;-83
2021/07/08 07:37:59;;;;;;;6.38;3.45;;;43.30;25.70;;;;;;4999720;28;20444;-87
2021/07/08 07:40:25;;;;;;;;;;;43.50;25.30;;;;;;5003995;28;20053;-84
2021/07/08 07:42:52;;;;;;;8.00;3.33;;;42.60;25.70;;;;;;4995780;28;19906;-86
2021/07/08 07:45:18;;;;;;;7.60;3.70;;;41.30;26.10;;;;;;4995867;28;20117;-84
2021/07/08 07:47:46;;;;;;;6.60;3.28;;;39.90;26.90;;;;;;4995934;28;20057;-84
2021/07/08 07:50:13;;;;;;;5.78;3.25;;;38.40;28.10;;;;;;4995607;28;20057;-84
2021/07/08 07:52:38;;;;;;;4.75;3.53;;;36.90;28.70;;;;;;4997015;28;20041;-86
2021/07/08 07:55:05;;;;;;;9.70;4.50;;;36.20;29.60;;;;;;4989078;28;20037;-85
2021/07/08 07:57:32;;;;;;;5.57;4.22;;;36.00;30.20;;;;;;4993649;28;20086;-85
2021/07/08 07:59:58;;;;;;;6.22;4.00;;;35.90;29.70;;;;;;4999144;28;20031;-86
2021/07/08 08:02:24;;;;;;;7.70;3.60;;;35.60;29.70;;;;;;5003885;28;20033;-84
2021/07/08 08:04:56;;;;;;;10.33;4.03;;;35.70;30.40;;;;;;4996829;28;20369;-85
2021/07/08 08:10:07;;;;;;;8.70;4.05;;;41.60;27.10;;;;;;4995928;28;20500;-84
2021/07/08 08:12:34;;;;;;;9.07;3.88;;;42.60;27.10;;;;;;4994924;28;20050;-85
2021/07/08 08:15:03;;;;;;;5.05;3.25;;;43.50;26.60;;;;;;4995006;28;20106;-85
2021/07/08 08:17:30;;;;;;;9.07;3.75;;;;;;;;;;4994830;28;20078;-87
2021/07/08 08:19:55;;;;;;;4.88;3.70;;;46.70;24.30;;;;;;4996333;28;20045;-85
2021/07/08 08:22:22;;;;;;;10.63;3.13;;;47.20;24.10;;;;;;4996817;28;20380;-83
2021/07/08 08:24:50;;;;;;;4.93;3.15;;;;;;;;;;5002821;28;20045;-83
2021/07/08 08:27:17;;;;;;;6.60;4.40;;;;;;;;;;5006550;28;20034;-83
2021/07/08 08:29:43;;;;;;;8.07;3.50;;;;;;;;;;5006090;28;20034;-83
2021/07/08 08:32:09;;;;;;;8.15;2.75;;;;;;;;;;4998867;28;20510;-87
2021/07/08 08:34:36;;;;;;;4.63;2.70;;;;;;;;;;4996241;28;20030;-85
2021/07/08 08:37:02;;;;;;;8.65;3.28;;;;;;;;;;4994604;28;20030;-85
2021/07/08 08:39:28;;;;;;;6.63;3.15;;;46.20;23.30;;;;;;4995223;28;20032;-85
2021/07/08 08:41:54;;;;;;;5.68;3.13;;;45.40;24.30;;;;;;4995685;28;20065;-84
2021/07/08 08:44:20;;;;;;;;;;;44.90;24.20;;;;;;4997031;28;20042;-84
2021/07/08 08:46:46;;;;;;;10.50;4.25;;;43.60;25.20;;;;;;4996275;28;20368;-85
2021/07/08 08:49:12;;;;;;;6.60;3.35;;;42.60;25.80;;;;;;4994450;28;20383;-84
2021/07/08 08:51:38;;;;;;;;;;;43.30;25.60;;;;;;4994982;28;20042;-84
2021/07/08 08:54:04;;;;;;;7.30;3.47;;;42.30;25.60;;;;;;4995099;28;19941;-84
2021/07/08 08:56:30;;;;;;;5.70;3.50;;;42.10;25.80;;;;;;4994975;28;20388;-86
2021/07/08 08:58:56;;;;;;;7.40;3.55;;;43.00;25.50;;;;;;4994258;28;20129;-85
2021/07/08 09:01:22;;;;;;;4.63;2.97;;;44.60;25.00;;;;;;4994366;28;20417;-84
2021/07/08 09:03:47;;;;;;;7.68;3.45;;;45.70;24.50;;;;;;4994433;28;20114;-82
2021/07/08 09:06:15;;;;;;;4.50;3.00;;;46.90;24.00;;;;;;4994588;28;20018;-83
2021/07/08 09:08:48;;;;;;;4.88;3.10;;;46.40;23.50;;;;;;4994043;28;20571;-83
2021/07/08 09:11:20;;;;;;;6.82;3.33;;;45.60;23.50;;;;;;4995351;28;20057;-83
2021/07/08 09:13:53;;;;;;;7.80;3.30;;;45.90;23.90;;;;;;4997316;28;20042;-84
2021/07/08 09:16:23;;;;;;;6.68;3.03;;;47.20;23.80;;;;;;4994523;28;20029;-86
2021/07/08 09:19:04;;;;;;;6.18;3.97;;;48.20;23.50;;;;;;4993289;28;20030;-85
2021/07/08 09:21:32;;;;;;;8.13;3.38;;;49.10;23.40;;;;;;4981170;28;20085;-86
2021/07/08 09:24:22;;;;;;;5.07;3.05;;;49.20;22.80;;;;;;4993743;28;20038;-88
2021/07/08 09:26:58;;;;;;;4.90;3.40;;;48.60;23.00;;;;;;4996654;28;20097;-82
2021/07/08 09:29:27;;;;;;;5.28;3.50;;;49.10;22.90;;;;;;5001106;28;20037;-86
2021/07/08 09:31:57;;;;;;;7.45;3.42;;;49.10;22.40;;;;;;4995689;28;20022;-85
2021/07/08 09:34:45;;;;;;;5.78;3.55;;;48.90;22.50;;;;;;4994997;28;20015;-85
2021/07/08 09:37:14;;;;;;;6.15;2.78;;;48.80;22.50;;;;;;4994392;28;20054;-82
2021/07/08 09:39:44;;;;;;;7.85;3.38;;;47.90;22.70;;;;;;4995527;28;20038;-82
2021/07/08 09:42:14;;;;;;;6.18;3.70;;;46.40;23.00;;;;;;4994216;28;20026;-84
2021/07/08 09:44:40;;;;;;;7.53;3.25;;;45.30;23.50;;;;;;4994703;28;20042;-84
2021/07/08 09:47:27;;;;;;;5.75;3.92;;;45.40;23.60;;;;;;4994953;28;20049;-85
2021/07/08 09:49:53;;;;;;;5.70;3.92;;;46.30;23.60;;;;;;4993385;28;20022;-84
2021/07/08 09:52:19;;;;;;;5.47;3.20;;;47.40;23.40;;;;;;4993294;28;20468;-84
2021/07/08 09:55:33;;;;;;;4.88;3.58;;;47.90;22.80;;;;;;4995278;28;20026;-87
2021/07/08 09:57:46;;;;;;;8.65;3.78;;;48.20;22.60;;;;;;4983530;28;20142;-84
2021/07/08 10:00:18;;;;;;;5.38;3.67;;;47.30;22.70;;;;;;4998107;28;20023;-83
2021/07/08 10:02:45;;;;;;;5.32;3.25;;;46.90;22.70;;;;;;4996026;28;20041;-85
2021/07/08 10:05:12;;;;;;;5.72;3.40;;;45.80;23.10;;;;;;4993841;28;20472;-84
2021/07/08 10:07:38;;;;;;;8.40;3.13;;;45.00;23.60;;;;;;4993676;28;20023;-84
2021/07/08 10:10:05;;;;;;;5.00;3.25;;;44.40;23.90;;;;;;4994345;28;20042;-84
2021/07/08 10:12:33;;;;;;;5.95;3.10;;;43.90;24.30;;;;;;4993680;28;20052;-84
2021/07/08 10:15:03;;;;;;;4.28;3.20;;;44.10;24.50;;;;;;4997340;28;20098;-85
2021/07/08 10:17:34;;;;;;;6.07;3.40;;;44.80;24.50;;;;;;4998314;28;20018;-85
2021/07/08 10:20:02;;;;;;;5.22;3.78;;;45.60;24.40;;;;;;4998741;28;20488;-84
2021/07/08 10:22:30;;;;;;;4.35;3.28;;;46.30;23.80;;;;;;4997856;28;20026;-85
2021/07/08 10:24:55;;;;;;;6.97;3.65;;;46.80;23.70;;;;;;4997188;28;20049;-84
2021/07/08 10:27:22;;;;;;;7.47;3.55;;;46.30;23.50;;;;;;4997390;28;20023;-85
2021/07/08 10:29:49;;;;;;;7.78;3.60;;;45.90;23.70;;;;;;4997059;28;20022;-84
2021/07/08 10:32:17;;;;;;;10.80;3.78;;;46.20;23.80;;;;;;4996076;28;20018;-84
2021/07/08 10:34:47;;;;;;;10.18;3.42;;;45.30;23.40;;;;;;4997564;28;20502;-84
2021/07/08 10:37:28;;;;;;;9.93;3.58;;;43.60;23.90;;;;;;4997222;28;20019;-84
2021/07/08 10:39:56;;;;;;;4.53;3.80;;;42.10;24.80;;;;;;4985052;28;20031;-83
2021/07/08 10:42:42;;;;;;;6.22;4.40;;;40.30;25.80;;;;;;4998099;28;20503;-85
2021/07/08 10:45:29;;;;;;;10.98;4.18;;;38.80;27.20;;;;;;4997839;28;20034;-84
2021/07/08 10:48:23;;;;;;;6.68;4.18;;;37.80;27.50;;;;;;5000203;28;20476;-84
2021/07/08 10:50:52;;;;;;;10.15;5.95;;;36.80;28.50;;;;;;5002488;28;20045;-84
2021/07/08 10:53:21;;;;;;;4.13;3.72;;;35.90;28.90;;;;;;5003368;28;20084;-85
2021/07/08 10:55:59;;;;;;;9.05;4.28;;;35.30;29.10;;;;;;5000120;28;20023;-86
2021/07/08 10:58:56;;;;;;;5.15;4.22;;;34.90;29.40;;;;;;4998477;28;20030;-84
2021/07/08 11:01:22;;;;;;;6.70;4.60;;;34.60;29.90;;;;;;4999301;28;20026;-85
2021/07/08 11:03:48;;;;;;;10.27;4.57;;;34.40;30.70;;;;;;4996547;28;20099;-85
2021/07/08 11:06:19;;;;;;;7.38;4.15;;;34.20;31.20;;;;;;4996994;28;20489;-87
2021/07/08 11:08:45;;;;;;;9.90;6.43;;;34.10;30.80;;;;;;4975507;28;20035;-85
2021/07/08 11:11:33;;;;;;;7.37;4.63;;;34.00;31.30;;;;;;4971485;28;20166;-84
2021/07/08 11:14:08;;;;;;;8.25;4.43;;;33.70;31.60;;;;;;4951624;28;20118;-85
2021/07/08 11:16:46;;;;;;;7.00;4.38;;;33.60;31.80;;;;;;4975404;28;20035;-85
2021/07/08 11:19:15;;;;;;;11.82;5.22;;;33.40;31.70;;;;;;4974888;28;20074;-84
2021/07/08 11:21:50;;;;;;;6.15;4.18;;;33.10;31.70;;;;;;4974697;28;20023;-84
2021/07/08 11:24:28;;;;;;;9.38;5.03;;;32.80;32.00;;;;;;4974661;28;20061;-85
2021/07/08 11:27:00;;;;;;;6.32;4.35;;;32.60;32.90;;;;;;4974674;28;20019;-85
2021/07/08 11:29:35;;;;;;;7.63;4.60;;;32.40;32.90;;;;;;4959286;28;20436;-83
2021/07/08 11:32:15;;;;;;;4.80;4.32;;;32.30;32.70;;;;;;4976073;28;20030;-83
2021/07/08 11:34:58;;;;;;;6.20;4.85;;;32.10;33.30;;;;;;4974836;28;20201;-85
2021/07/08 11:37:35;;;;;;;10.77;5.47;;;32.20;33.40;;;;;;4974746;28;20054;-84
2021/07/08 11:40:02;;;;;;;6.68;4.43;;;32.10;33.30;;;;;;4987016;28;20030;-84
2021/07/08 11:42:33;;;;;;;;;;;32.10;32.90;;;;;;4996022;28;20023;-86
2021/07/08 11:45:14;;;;;;;9.65;5.00;;;32.00;32.70;;;;;;4996839;28;19914;-83
2021/07/08 11:47:46;;;;;;;5.60;3.95;;;31.90;33.00;;;;;;4997009;28;20030;-84
2021/07/08 11:50:23;;;;;;;6.90;4.53;;;31.60;33.90;;;;;;4996438;28;20023;-83
2021/07/08 11:52:49;;;;;;;;;;;31.70;34.10;;;;;;4983522;28;20117;-85
2021/07/08 11:55:16;;;;;;;10.52;4.93;;;31.60;33.40;;;;;;4997029;28;19913;-85
2021/07/08 11:57:58;;;;;;;6.85;4.05;;;31.50;34.00;;;;;;4996004;28;20023;-85
2021/07/08 12:00:35;;;;;;;6.10;4.50;;;31.50;34.80;;;;;;4997730;28;20027;-84
2021/07/08 12:03:02;;;;;;;7.15;4.22;;;31.70;34.80;;;;;;4983332;28;20093;-85
2021/07/08 12:05:28;;;;;;;12.10;4.95;;;31.80;34.50;;;;;;4995369;28;20070;-84
2021/07/08 12:08:06;;;;;;;7.50;3.90;;;31.90;34.50;;;;;;4995024;28;20019;-86
2021/07/08 12:10:34;;;;;;;6.15;5.28;;;31.90;34.50;;;;;;4995326;28;20109;-84
2021/07/08 12:13:01;;;;;;;12.07;5.15;;;31.70;34.80;;;;;;4994807;28;20050;-84
2021/07/08 12:15:28;;;;;;;9.52;5.00;;;31.70;35.40;;;;;;4995414;28;20046;-84
2021/07/08 12:17:58;;;;;;;7.03;5.15;;;31.80;35.70;;;;;;4994663;28;20034;-87
2021/07/08 12:20:25;;;;;;;7.45;4.40;;;31.90;35.60;;;;;;4996927;28;20022;-85
2021/07/08 12:22:53;;;;;;;8.98;4.80;;;31.90;35.20;;;;;;4995803;28;20029;-86
2021/07/08 12:25:21;;;;;;;7.22;5.72;;;31.90;35.40;;;;;;4995706;28;20026;-85
2021/07/08 12:27:47;;;;;;;6.57;4.72;;;31.80;35.30;;;;;;4995290;28;20027;-84
2021/07/08 12:30:28;;;;;;;7.40;4.20;;;31.90;34.80;;;;;;4996342;28;20101;-87
2021/07/08 12:33:23;;;;;;;5.85;5.03;;;31.90;34.90;;;;;;4999778;28;20022;-85
2021/07/08 12:35:49;;;;;;;10.35;4.68;;;31.80;34.40;;;;;;4981354;28;20042;-85
2021/07/08 12:38:17;;;;;;;7.97;5.35;;;31.70;35.30;;;;;;4988077;28;20026;-86
2021/07/08 12:40:47;;;;;;;9.90;5.00;;;31.90;34.60;;;;;;4994548;28;20045;-84
2021/07/08 12:43:16;;;;;;;6.03;5.05;;;32.00;34.90;;;;;;4994972;28;20031;-86
2021/07/08 12:45:42;;;;;;;6.28;4.10;;;32.00;34.40;;;;;;4995705;28;20027;-87
2021/07/08 12:48:14;;;;;;;6.18;4.75;;;32.10;34.70;;;;;;4994028;28;20026;-85
2021/07/08 12:50:43;;;;;;;12.32;4.82;;;32.00;35.20;;;;;;4993177;28;20443;-86
2021/07/08 12:53:13;;;;;;;8.60;4.70;;;32.10;34.60;;;;;;4995119;28;20027;-84
2021/07/08 12:56:04;;;;;;;7.47;4.55;;;32.10;34.60;;;;;;4994514;28;20022;-87